Time;durP1;ratioP1;P1;durP2;ratioP2;P2;SDS_P1;SDS_P2;PMS_P1;PMS_P2;Temp;Humidity;BMP_temperature;BMP_pressure;BME280_temperature;BME280_humidity;BME280_pressure;Samples;Min_cycle;Max_cycle;Signal;HPM_P1;HPM_P2
2022/01/20 00:00:20;;;;;;;27.63;5.70;;;;;;;3.97;100.00;102408.91;5242681;28;20021;-72
2022/01/20 00:02:57;;;;;;;21.88;4.22;;;;;;;3.93;100.00;102407.31;5238800;28;20491;-72
2022/01/20 00:27:37;;;;;;;23.67;4.07;;;;;;;3.72;100.00;102404.50;5239967;28;20033;-73
2022/01/20 00:30:32;;;;;;;26.43;4.20;;;;;;;3.77;100.00;102417.31;5240668;28;20025;-73
2022/01/20 00:33:52;;;;;;;24.17;4.93;;;;;;;3.69;100.00;102416.72;5241423;28;20033;-73
2022/01/20 00:38:26;;;;;;;20.67;4.40;;;;;;;3.69;100.00;102411.53;5240628;28;20056;-73
2022/01/20 00:40:57;;;;;;;32.13;5.18;;;;;;;3.65;100.00;102421.97;5240278;28;20135;-73
2022/01/20 00:43:29;;;;;;;21.80;5.15;;;;;;;3.64;100.00;102420.28;5240256;28;20020;-73
2022/01/20 00:46:00;;;;;;;27.52;5.55;;;;;;;3.62;100.00;102427.25;5240091;28;20035;-73
2022/01/20 00:48:32;;;;;;;22.02;3.88;;;;;;;3.64;100.00;102409.09;5242479;28;20029;-73
2022/01/20 00:51:03;;;;;;;22.77;4.00;;;;;;;3.61;100.00;102399.66;5241819;28;20017;-73
2022/01/20 00:53:34;;;;;;;22.92;4.57;;;;;;;3.62;100.00;102414.28;5240827;28;20036;-73
2022/01/20 00:56:06;;;;;;;26.42;4.53;;;;;;;3.64;100.00;102412.53;5240219;28;20149;-73
2022/01/20 00:58:37;;;;;;;22.95;4.50;;;;;;;3.66;100.00;102407.28;5238266;28;20112;-73
2022/01/20 01:01:09;;;;;;;24.42;5.30;;;;;;;3.70;100.00;102426.16;5238333;28;20067;-73
2022/01/20 01:03:40;;;;;;;21.38;4.10;;;;;;;3.75;100.00;102427.75;5241007;28;20408;-73
2022/01/20 01:06:57;;;;;;;34.33;5.80;;;;;;;3.85;100.00;102428.28;5233524;28;20102;-73
2022/01/20 01:09:09;;;;;;;23.05;4.45;;;;;;;3.96;100.00;102430.56;5237312;28;20395;-73
2022/01/20 01:11:43;;;;;;;19.00;4.40;;;;;;;4.03;100.00;102421.69;5241935;28;20120;-72
2022/01/20 01:14:16;;;;;;;16.50;3.00;;;;;;;4.14;100.00;102437.75;5239629;28;20091;-73
2022/01/20 01:24:43;;;;;;;16.08;3.50;;;;;;;4.22;100.00;102442.69;5242226;28;20038;-72
2022/01/20 01:27:14;;;;;;;;;;;;;;;4.61;100.00;102437.91;5241720;28;20044;-72
2022/01/20 01:32:20;;;;;;;15.02;3.83;;;;;;;4.23;100.00;102436.59;5241433;28;20349;-72
2022/01/20 01:34:53;;;;;;;17.67;3.17;;;;;;;4.20;100.00;102439.28;5244690;28;20021;-72
2022/01/20 01:40:08;;;;;;;19.45;4.28;;;;;;;4.12;100.00;102432.59;5244473;28;20486;-73
2022/01/20 01:42:46;;;;;;;17.10;3.13;;;;;;;4.17;100.00;102432.47;5245121;28;20036;-72
2022/01/20 01:45:24;;;;;;;18.15;3.50;;;;;;;4.20;100.00;102440.13;5238024;28;20020;-72
2022/01/20 01:47:56;;;;;;;17.02;3.15;;;;;;;4.10;100.00;102425.78;5245712;28;20048;-73
2022/01/20 01:50:28;;;;;;;14.07;3.63;;;;;;;4.12;100.00;102435.19;5243258;28;20486;-73
2022/01/20 01:53:03;;;;;;;13.95;3.20;;;;;;;4.18;100.00;102443.69;5243782;28;20072;-72
2022/01/20 01:55:35;;;;;;;23.27;3.08;;;;;;;4.12;100.00;102447.31;5239594;28;20055;-72
2022/01/20 01:58:07;;;;;;;18.15;3.22;;;;;;;4.09;100.00;102450.00;5245255;28;20056;-72
2022/01/20 02:00:40;;;;;;;15.68;2.92;;;;;;;4.08;100.00;102446.56;5242180;28;20053;-72
2022/01/20 02:03:14;;;;;;;17.23;3.35;;;;;;;4.04;100.00;102436.34;5242211;28;20032;-72
2022/01/20 02:06:03;;;;;;;30.48;4.10;;;;;;;4.07;100.00;102442.28;5243368;28;20501;-72
2022/01/20 02:20:05;;;;;;;11.55;2.78;;;;;;;4.22;100.00;102453.06;5243019;28;20041;-72
2022/01/20 02:22:36;;;;;;;17.25;2.75;;;;;;;4.28;100.00;102450.25;5244429;28;20039;-72
2022/01/20 02:25:37;;;;;;;12.48;1.88;;;;;;;4.57;100.00;102463.13;5244593;28;20040;-72
2022/01/20 02:28:10;;;;;;;12.77;2.25;;;;;;;4.47;100.00;102468.66;5226969;28;20053;-72
2022/01/20 02:30:43;;;;;;;16.17;2.58;;;;;;;4.45;100.00;102452.31;5243146;28;20485;-72
2022/01/20 02:33:19;;;;;;;13.27;2.60;;;;;;;4.54;100.00;102442.44;5243290;28;20039;-72
2022/01/20 02:35:54;;;;;;;12.05;2.30;;;;;;;4.54;100.00;102447.63;5243153;28;20033;-73
2022/01/20 02:38:33;;;;;;;21.58;3.85;;;;;;;4.54;100.00;102442.44;5242535;28;20075;-72
2022/01/20 02:46:45;;;;;;;9.30;2.33;;;;;;;4.55;100.00;102432.94;5242399;28;20057;-72
2022/01/20 02:49:18;;;;;;;12.85;2.17;;;;;;;4.60;100.00;102437.06;5242857;28;20056;-73
2022/01/20 02:51:54;;;;;;;16.48;2.70;;;;;;;4.64;100.00;102456.81;5244704;28;20044;-73
2022/01/20 02:54:25;;;;;;;13.02;3.08;;;;;;;4.65;100.00;102452.47;5242619;28;20032;-72
2022/01/20 02:56:56;;;;;;;14.25;2.53;;;;;;;4.62;100.00;102443.06;5242134;28;20021;-72
2022/01/20 02:59:28;;;;;;;14.18;2.67;;;;;;;4.59;100.00;102439.72;5242389;28;20053;-73
2022/01/20 03:01:59;;;;;;;11.25;2.20;;;;;;;4.54;100.00;102426.03;5241683;28;20036;-73
2022/01/20 03:04:31;;;;;;;8.80;2.53;;;;;;;4.53;100.00;102429.53;5241629;28;20029;-73
2022/01/20 03:07:04;;;;;;;10.07;2.45;;;;;;;4.51;100.00;102420.94;5243247;28;20382;-73
2022/01/20 03:09:35;;;;;;;10.88;2.78;;;;;;;4.55;100.00;102428.59;5244380;28;20026;-72
2022/01/20 03:12:07;;;;;;;10.73;2.40;;;;;;;4.48;100.00;102428.84;5242423;28;20035;-73
2022/01/20 03:14:39;;;;;;;10.75;3.08;;;;;;;4.45;100.00;102422.00;5244097;28;20025;-73
2022/01/20 03:17:11;;;;;;;16.65;3.20;;;;;;;4.43;100.00;102433.31;5243567;28;20028;-73
2022/01/20 03:19:42;;;;;;;16.00;2.85;;;;;;;4.36;100.00;102430.13;5245030;28;20090;-72
2022/01/20 03:22:13;;;;;;;11.38;2.33;;;;;;;4.28;100.00;102414.81;5242618;28;20095;-73
2022/01/20 03:24:45;;;;;;;16.10;4.00;;;;;;;4.25;100.00;102408.88;5242278;28;20044;-73
2022/01/20 03:27:16;;;;;;;16.05;3.05;;;;;;;4.25;100.00;102401.94;5242706;28;20109;-73
2022/01/20 03:29:47;;;;;;;16.27;2.25;;;;;;;4.21;100.00;102420.25;5242468;28;20041;-73
2022/01/20 03:32:19;;;;;;;15.85;2.80;;;;;;;4.19;100.00;102411.66;5241219;28;20553;-73
2022/01/20 03:34:50;;;;;;;14.25;3.13;;;;;;;4.17;100.00;102413.44;5240427;28;20021;-73
2022/01/20 03:37:21;;;;;;;11.68;2.58;;;;;;;4.11;100.00;102410.16;5242169;28;20567;-73
2022/01/20 03:39:53;;;;;;;13.80;2.55;;;;;;;4.12;100.00;102408.41;5241743;28;20123;-73
2022/01/20 03:42:24;;;;;;;15.23;2.55;;;;;;;4.05;100.00;102402.59;5242637;28;20029;-73
2022/01/20 03:44:55;;;;;;;17.65;2.92;;;;;;;4.06;100.00;102414.66;5241129;28;20570;-73
2022/01/20 03:47:30;;;;;;;14.73;2.75;;;;;;;4.12;100.00;102406.66;5241517;28;20541;-73
2022/01/20 03:50:59;;;;;;;15.77;2.80;;;;;;;4.10;100.00;102410.22;5241387;28;20056;-73
2022/01/20 03:52:59;;;;;;;18.23;2.60;;;;;;;4.12;100.00;102411.00;5239992;28;20037;-73
2022/01/20 03:55:31;;;;;;;11.65;2.92;;;;;;;4.08;100.00;102410.25;5239997;28;20379;-73
2022/01/20 03:58:02;;;;;;;12.27;2.40;;;;;;;4.07;100.00;102408.56;5240109;28;20497;-72
2022/01/20 04:00:33;;;;;;;14.27;2.60;;;;;;;4.01;100.00;102403.56;5239446;28;20025;-72
2022/01/20 04:03:05;;;;;;;13.85;2.83;;;;;;;3.97;100.00;102407.16;5242633;28;20036;-72
2022/01/20 04:05:44;;;;;;;15.68;2.95;;;;;;;3.95;100.00;102401.19;5241126;28;20025;-72
2022/01/20 04:08:16;;;;;;;15.88;3.05;;;;;;;3.95;100.00;102415.91;5242290;28;20032;-72
2022/01/20 04:10:47;;;;;;;16.17;3.42;;;;;;;3.93;100.00;102410.75;5240700;28;20029;-73
2022/01/20 04:13:19;;;;;;;13.77;2.22;;;;;;;3.94;100.00;102419.38;5241940;28;20789;-73
2022/01/20 04:15:51;;;;;;;16.73;2.92;;;;;;;3.97;100.00;102430.50;5239809;28;20021;-73
2022/01/20 04:18:26;;;;;;;16.77;2.78;;;;;;;3.97;100.00;102427.06;5241423;28;20786;-73
2022/01/20 04:20:57;;;;;;;15.45;3.15;;;;;;;4.01;100.00;102429.50;5241659;28;20423;-72
2022/01/20 04:23:30;;;;;;;12.63;2.55;;;;;;;4.07;100.00;102424.13;5240414;28;20411;-73
2022/01/20 04:26:01;;;;;;;13.02;3.10;;;;;;;4.10;100.00;102425.78;5239736;28;20494;-73
2022/01/20 04:28:32;;;;;;;17.55;3.17;;;;;;;4.14;100.00;102432.56;5239449;28;20027;-73
2022/01/20 04:31:04;;;;;;;15.70;2.38;;;;;;;4.19;100.00;102442.78;5242089;28;20456;-73
2022/01/20 04:33:35;;;;;;;13.32;2.90;;;;;;;4.25;100.00;102443.44;5238777;28;20025;-73
2022/01/20 04:36:07;;;;;;;19.85;3.92;;;;;;;4.25;100.00;102451.22;5239892;28;20029;-72
2022/01/20 04:38:39;;;;;;;19.48;3.53;;;;;;;4.27;100.00;102454.59;5241468;28;20123;-73
2022/01/20 04:41:10;;;;;;;21.05;3.50;;;;;;;4.28;100.00;102456.31;5240084;28;20025;-72
2022/01/20 04:43:42;;;;;;;12.70;2.63;;;;;;;4.32;100.00;102462.25;5241263;28;20033;-72
2022/01/20 04:46:26;;;;;;;17.00;3.17;;;;;;;4.29;100.00;102449.38;5240854;28;20491;-72
2022/01/20 04:57:22;;;;;;;15.77;3.88;;;;;;;4.34;100.00;102450.06;5242282;28;20045;-72
2022/01/20 04:59:54;;;;;;;14.20;3.00;;;;;;;4.38;100.00;102470.66;5240992;28;20039;-73
2022/01/20 05:02:28;;;;;;;14.93;2.78;;;;;;;4.34;100.00;102476.84;5242379;28;20116;-73
2022/01/20 05:04:59;;;;;;;13.35;2.67;;;;;;;4.36;100.00;102476.81;5241214;28;20386;-72
2022/01/20 05:07:30;;;;;;;16.98;2.83;;;;;;;4.39;100.00;102484.47;5240069;28;20028;-73
2022/01/20 05:10:06;;;;;;;17.83;3.35;;;;;;;4.43;100.00;102501.63;5242064;28;20116;-72
2022/01/20 05:13:02;;;;;;;15.18;3.58;;;;;;;4.44;100.00;102492.13;5242490;28;20538;-73
2022/01/20 05:15:30;;;;;;;12.95;2.63;;;;;;;4.52;100.00;102497.91;5240324;28;20090;-73
2022/01/20 05:18:01;;;;;;;15.23;2.95;;;;;;;4.50;100.00;102491.91;5241204;28;20073;-73
2022/01/20 05:20:33;;;;;;;20.40;3.63;;;;;;;4.55;100.00;102495.22;5242138;28;20021;-73
2022/01/20 05:23:04;;;;;;;15.20;2.97;;;;;;;4.57;100.00;102498.59;5243637;28;20076;-73
2022/01/20 05:25:35;;;;;;;15.35;2.97;;;;;;;4.57;100.00;102504.63;5242575;28;20021;-72
2022/01/20 05:28:07;;;;;;;18.08;4.10;;;;;;;4.62;100.00;102507.97;5240197;28;20292;-73
2022/01/20 05:30:40;;;;;;;14.40;2.72;;;;;;;4.59;100.00;102515.00;5242203;28;20398;-73
2022/01/20 05:33:11;;;;;;;16.80;3.60;;;;;;;4.60;100.00;102507.16;5241719;28;20036;-73
2022/01/20 05:35:42;;;;;;;18.33;2.85;;;;;;;4.60;100.00;102507.16;5240261;28;20389;-73
2022/01/20 05:38:14;;;;;;;18.15;3.33;;;;;;;4.61;100.00;102508.84;5227617;28;20053;-73
2022/01/20 05:40:45;;;;;;;16.55;3.05;;;;;;;4.63;100.00;102535.59;5241811;28;20048;-73
2022/01/20 05:43:17;;;;;;;13.55;2.47;;;;;;;4.61;100.00;102539.97;5242206;28;20057;-72
2022/01/20 05:45:48;;;;;;;12.35;2.25;;;;;;;4.59;100.00;102526.22;5240403;28;20608;-72
2022/01/20 05:48:31;;;;;;;9.40;1.85;;;;;;;4.52;100.00;102529.06;5243507;28;20470;-72
2022/01/20 05:51:05;;;;;;;13.00;2.50;;;;;;;4.55;100.00;102532.41;5242866;28;20029;-73
2022/01/20 05:53:36;;;;;;;11.43;2.13;;;;;;;4.49;100.00;102544.72;5240828;28;20082;-73
2022/01/20 05:56:08;;;;;;;12.43;2.45;;;;;;;4.46;100.00;102552.59;5240251;28;20025;-72
2022/01/20 05:58:39;;;;;;;13.07;2.13;;;;;;;4.38;100.00;102552.84;5241108;28;20029;-73
2022/01/20 06:01:11;;;;;;;10.15;1.65;;;;;;;4.45;100.00;102562.16;5242180;28;20025;-73
2022/01/20 06:03:42;;;;;;;11.80;2.08;;;;;;;4.43;100.00;102569.13;5241854;28;20031;-72
2022/01/20 06:06:13;;;;;;;11.48;2.17;;;;;;;4.44;100.00;102568.25;5241879;28;20494;-72
2022/01/20 06:08:45;;;;;;;11.43;1.85;;;;;;;4.42;100.00;102563.97;5241308;28;20079;-73
2022/01/20 06:11:16;;;;;;;19.85;2.70;;;;;;;4.40;100.00;102561.44;5239731;28;20040;-72
2022/01/20 06:13:48;;;;;;;13.93;2.53;;;;;;;4.45;100.00;102572.53;5241546;28;20044;-72
2022/01/20 06:16:19;;;;;;;10.90;1.95;;;;;;;4.42;100.00;102577.81;5240465;28;20490;-73
2022/01/20 06:18:51;;;;;;;13.07;2.08;;;;;;;4.45;100.00;102577.72;5239938;28;20040;-73
2022/01/20 06:21:22;;;;;;;16.55;2.60;;;;;;;4.46;100.00;102579.41;5245522;28;20025;-72
2022/01/20 06:23:54;;;;;;;13.50;2.67;;;;;;;4.47;100.00;102588.91;5240928;28;20029;-72
2022/01/20 06:26:25;;;;;;;17.55;2.72;;;;;;;4.46;100.00;102592.38;5245133;28;20096;-73
2022/01/20 06:28:56;;;;;;;16.95;3.22;;;;;;;4.43;100.00;102595.06;5245861;28;20449;-72
2022/01/20 06:31:27;;;;;;;9.23;2.97;;;;;;;4.43;100.00;102597.66;5243101;28;20061;-72
2022/01/20 06:33:59;;;;;;;15.88;3.17;;;;;;;4.39;100.00;102603.84;5242348;28;20029;-72
2022/01/20 06:36:30;;;;;;;10.40;2.85;;;;;;;4.42;100.00;102605.50;5243070;28;20028;-72
2022/01/20 06:39:02;;;;;;;14.95;2.78;;;;;;;4.33;100.00;102594.53;5246105;28;20099;-72
2022/01/20 06:41:37;;;;;;;22.58;3.60;;;;;;;4.37;100.00;102598.72;5245118;28;20017;-72
2022/01/20 06:44:09;;;;;;;11.77;2.58;;;;;;;4.39;100.00;102601.25;5242040;28;20036;-72
2022/01/20 06:46:40;;;;;;;8.68;2.20;;;;;;;4.39;100.00;102611.63;5243996;28;20029;-72
2022/01/20 06:49:11;;;;;;;17.20;3.15;;;;;;;4.39;100.00;102612.50;5244855;28;20297;-72
2022/01/20 06:51:43;;;;;;;14.18;3.05;;;;;;;4.36;100.00;102622.13;5243618;28;20397;-72
2022/01/20 06:54:15;;;;;;;19.52;3.30;;;;;;;4.36;100.00;102625.56;5232835;28;20037;-73
2022/01/20 06:56:47;;;;;;;20.60;3.22;;;;;;;4.32;100.00;102628.31;5241945;28;20029;-73
2022/01/20 06:59:19;;;;;;;22.50;3.28;;;;;;;4.29;100.00;102623.19;5243769;28;20033;-72
2022/01/20 07:01:50;;;;;;;12.88;3.53;;;;;;;4.30;100.00;102635.28;5243958;28;20588;-73
2022/01/20 07:04:22;;;;;;;17.98;3.15;;;;;;;4.32;100.00;102636.09;5245122;28;20075;-72
2022/01/20 07:06:54;;;;;;;15.35;2.50;;;;;;;4.27;100.00;102640.53;5243466;28;20559;-73
2022/01/20 07:09:26;;;;;;;12.35;3.15;;;;;;;4.27;100.00;102649.16;5243281;28;20021;-73
2022/01/20 07:11:57;;;;;;;19.73;3.10;;;;;;;4.11;100.00;102635.81;5242567;28;20030;-73
2022/01/20 07:14:30;;;;;;;22.13;3.33;;;;;;;4.20;100.00;102654.59;5243631;28;20028;-73
2022/01/20 07:17:01;;;;;;;17.60;3.45;;;;;;;4.24;100.00;102659.63;5242813;28;20025;-72
2022/01/20 07:19:33;;;;;;;14.65;2.95;;;;;;;4.24;100.00;102653.59;5241683;28;20095;-73
2022/01/20 07:22:04;;;;;;;18.05;3.75;;;;;;;4.22;100.00;102660.59;5243065;28;20087;-73
2022/01/20 07:24:35;;;;;;;14.95;3.70;;;;;;;4.21;100.00;102656.31;5243240;28;20030;-73
2022/01/20 07:27:08;;;;;;;14.18;3.55;;;;;;;4.20;100.00;102675.34;5242759;28;20102;-72
2022/01/20 07:29:39;;;;;;;18.25;3.85;;;;;;;4.20;100.00;102675.34;5241886;28;20025;-73
2022/01/20 07:32:11;;;;;;;20.85;3.40;;;;;;;4.17;100.00;102676.31;5243885;28;20434;-72
2022/01/20 07:34:42;;;;;;;21.30;3.03;;;;;;;4.19;100.00;102678.84;5242174;28;20513;-72
2022/01/20 07:37:13;;;;;;;21.02;3.58;;;;;;;4.14;100.00;102691.94;5243513;28;20175;-73
2022/01/20 07:39:44;;;;;;;17.75;2.45;;;;;;;4.18;100.00;102695.31;5242824;28;20529;-72
2022/01/20 07:42:16;;;;;;;17.70;3.35;;;;;;;4.13;100.00;102693.69;5243204;28;20025;-72
2022/01/20 07:44:47;;;;;;;18.05;4.28;;;;;;;4.19;100.00;102691.81;5243572;28;20202;-72
2022/01/20 07:47:18;;;;;;;23.02;3.80;;;;;;;4.12;100.00;102686.78;5240068;28;20398;-73
2022/01/20 07:49:50;;;;;;;15.23;2.75;;;;;;;4.12;100.00;102691.97;5241901;28;20121;-73
2022/01/20 07:52:21;;;;;;;20.75;3.28;;;;;;;4.10;100.00;102691.19;5241908;28;20083;-73
2022/01/20 07:54:52;;;;;;;15.82;2.92;;;;;;;4.13;100.00;102704.06;5235650;28;20204;-73
2022/01/20 07:57:24;;;;;;;16.35;3.40;;;;;;;4.15;100.00;102709.19;5240941;28;20028;-73
2022/01/20 07:59:55;;;;;;;22.20;4.18;;;;;;;4.13;100.00;102705.81;5240157;28;21006;-73
2022/01/20 08:02:26;;;;;;;19.02;3.58;;;;;;;4.12;100.00;102707.53;5243297;28;20029;-72
2022/01/20 08:04:59;;;;;;;17.05;3.50;;;;;;;4.13;100.00;102705.81;5239180;28;20279;-72
2022/01/20 08:07:30;;;;;;;24.10;4.10;;;;;;;4.11;100.00;102698.06;5242399;28;20105;-72
2022/01/20 08:10:02;;;;;;;16.48;3.85;;;;;;;4.10;100.00;102700.72;5241429;28;20557;-73
2022/01/20 08:12:33;;;;;;;22.20;4.68;;;;;;;4.18;100.00;102726.44;5242159;28;20029;-73
2022/01/20 08:15:09;;;;;;;14.40;3.83;;;;;;;4.21;100.00;102734.13;5239323;28;20041;-72
2022/01/20 08:17:42;;;;;;;21.98;4.55;;;;;;;4.17;100.00;102740.28;5240347;28;20041;-73
2022/01/20 08:20:14;;;;;;;21.47;4.33;;;;;;;4.14;100.00;102736.03;5238988;28;20480;-73
2022/01/20 08:22:45;;;;;;;16.10;4.18;;;;;;;4.17;100.00;102748.94;5242389;28;20376;-72
2022/01/20 08:25:18;;;;;;;19.65;4.53;;;;;;;4.20;100.00;102745.38;5242534;28;20037;-72
2022/01/20 08:27:50;;;;;;;24.95;5.35;;;;;;;4.14;100.00;102749.00;5242940;28;20086;-73
2022/01/20 08:30:23;;;;;;;23.42;4.80;;;;;;;4.20;100.00;102754.00;5243264;28;20033;-73
2022/01/20 08:32:55;;;;;;;29.13;5.18;;;;;;;4.18;100.00;102760.16;5241091;28;20029;-73
2022/01/20 08:35:31;;;;;;;21.27;4.43;;;;;;;4.17;100.00;102748.94;5239059;28;20040;-72
2022/01/20 08:38:06;;;;;;;17.58;3.10;;;;;;;4.19;100.00;102743.69;5240057;28;20083;-72
2022/01/20 08:40:37;;;;;;;20.50;3.60;;;;;;;4.17;100.00;102755.84;5240853;28;20025;-73
2022/01/20 08:43:09;;;;;;;13.45;2.53;;;;;;;4.16;100.00;102752.41;5240289;28;20039;-73
2022/01/20 08:45:43;;;;;;;17.45;3.75;;;;;;;4.20;100.00;102755.75;5240333;28;20430;-72
2022/01/20 08:48:15;;;;;;;15.43;3.50;;;;;;;4.14;100.00;102765.44;5242302;28;20506;-72
2022/01/20 08:50:47;;;;;;;15.95;2.80;;;;;;;4.17;100.00;102764.50;5242036;28;20021;-72
2022/01/20 08:53:18;;;;;;;18.02;3.30;;;;;;;4.13;100.00;102768.91;5239889;28;20021;-73
2022/01/20 08:55:49;;;;;;;10.35;2.10;;;;;;;4.17;100.00;102776.59;5241150;28;20040;-72
2022/01/20 08:58:21;;;;;;;16.48;2.83;;;;;;;4.14;100.00;102770.63;5240567;28;20120;-72
2022/01/20 09:00:52;;;;;;;10.65;2.63;;;;;;;4.17;100.00;102774.88;5241223;28;20025;-72
2022/01/20 09:03:24;;;;;;;12.82;2.45;;;;;;;4.20;100.00;102784.28;5239625;28;20402;-72
2022/01/20 09:05:56;;;;;;;14.35;2.97;;;;;;;4.21;100.00;102783.44;5240198;28;20032;-72
2022/01/20 09:08:27;;;;;;;12.88;3.22;;;;;;;4.23;100.00;102790.25;5241429;28;20108;-73
2022/01/20 09:10:58;;;;;;;8.43;1.58;;;;;;;4.34;100.00;102795.16;5242974;28;20064;-73
2022/01/20 09:16:19;;;;;;;12.90;3.08;;;;;;;4.30;100.00;102812.56;5240315;28;20037;-72
2022/01/20 09:18:51;;;;;;;12.80;2.28;;;;;;;4.34;100.00;102818.50;5242660;28;20029;-73
2022/01/20 09:21:23;;;;;;;13.40;2.72;;;;;;;4.33;100.00;102816.81;5241365;28;20035;-73
2022/01/20 09:23:56;;;;;;;16.27;2.30;;;;;;;4.31;100.00;102816.00;5242720;28;20026;-72
2022/01/20 09:26:28;;;;;;;9.55;2.17;;;;;;;4.29;100.00;102810.84;5238989;28;20112;-72
2022/01/20 09:28:59;;;;;;;11.73;2.60;;;;;;;4.33;100.00;102814.22;5241197;28;20111;-72
2022/01/20 09:31:36;;;;;;;13.32;2.72;;;;;;;4.33;100.00;102811.63;5240349;28;20052;-72
2022/01/20 09:34:09;;;;;;;9.18;2.38;;;;;;;4.37;100.00;102815.84;5240550;28;20071;-72
2022/01/20 09:36:41;;;;;;;15.90;2.30;;;;;;;4.35;100.00;102805.47;5222268;28;20414;-72
2022/01/20 09:39:12;;;;;;;12.93;2.50;;;;;;;4.31;100.00;102805.63;5240178;28;20033;-72
2022/01/20 09:41:44;;;;;;;13.32;3.00;;;;;;;4.35;100.00;102804.63;5239846;28;20494;-72
2022/01/20 09:44:16;;;;;;;9.38;2.25;;;;;;;4.44;100.00;102796.63;5241418;28;20021;-72
2022/01/20 09:46:47;;;;;;;11.38;2.17;;;;;;;4.47;100.00;102799.13;5238540;28;20025;-72
2022/01/20 09:49:19;;;;;;;18.10;2.70;;;;;;;4.57;100.00;102804.91;5242644;28;20032;-72
2022/01/20 09:51:50;;;;;;;13.13;2.95;;;;;;;4.61;100.00;102802.16;5243846;28;20021;-72
2022/01/20 09:54:21;;;;;;;13.52;2.25;;;;;;;4.65;100.00;102810.72;5244595;28;20021;-73
2022/01/20 09:56:53;;;;;;;12.57;3.05;;;;;;;4.66;100.00;102819.34;5245947;28;20125;-72
2022/01/20 09:59:25;;;;;;;12.82;2.97;;;;;;;4.64;100.00;102833.25;5249090;28;20028;-72
2022/01/20 10:01:58;;;;;;;12.63;2.78;;;;;;;4.60;100.00;102841.16;5246858;28;20321;-72
2022/01/20 10:04:35;;;;;;;15.25;3.15;;;;;;;4.64;100.00;102848.81;5246648;28;20025;-72
2022/01/20 10:07:09;;;;;;;12.25;2.45;;;;;;;4.57;100.00;102860.25;5232312;28;20622;-72
2022/01/20 10:09:45;;;;;;;13.07;2.72;;;;;;;4.57;100.00;102855.06;5244801;28;20033;-73
2022/01/20 10:12:19;;;;;;;12.45;2.47;;;;;;;4.59;100.00;102858.50;5228433;28;20503;-72
2022/01/20 10:14:54;;;;;;;13.93;2.30;;;;;;;4.60;100.00;102859.34;5243940;28;20033;-72
2022/01/20 10:17:29;;;;;;;14.93;2.33;;;;;;;4.62;100.00;102866.19;5240522;28;20037;-72
2022/01/20 10:20:05;;;;;;;12.65;2.55;;;;;;;4.71;100.00;102857.28;5243593;28;20029;-72
2022/01/20 10:22:37;;;;;;;11.40;2.30;;;;;;;4.75;100.00;102865.84;5243633;28;20040;-72
2022/01/20 10:25:12;;;;;;;13.88;2.38;;;;;;;4.85;100.00;102869.91;5243940;28;20033;-72
2022/01/20 10:27:52;;;;;;;8.50;2.20;;;;;;;4.96;100.00;102874.75;5243222;28;20036;-72
2022/01/20 10:30:26;;;;;;;14.50;2.22;;;;;;;4.93;100.00;102869.69;5241964;28;20021;-72
2022/01/20 10:33:00;;;;;;;17.50;4.03;;;;;;;4.99;100.00;102880.72;5244051;28;20107;-72
2022/01/20 10:35:34;;;;;;;12.98;3.50;;;;;;;5.03;100.00;102882.34;5243672;28;20028;-72
2022/01/20 10:38:14;;;;;;;13.18;2.72;;;;;;;5.20;100.00;102883.63;5242578;28;20089;-72
2022/01/20 10:40:56;;;;;;;11.93;2.08;;;;;;;5.29;100.00;102883.31;5241559;28;20059;-72
2022/01/20 10:43:33;;;;;;;14.20;3.45;;;;;;;5.38;100.00;102888.28;5244297;28;20508;-72
2022/01/20 10:46:11;;;;;;;12.75;2.88;;;;;;;5.50;100.00;102887.03;5244885;28;20095;-72
2022/01/20 10:48:43;;;;;;;13.52;2.38;;;;;;;5.54;100.00;102894.69;5242600;28;20056;-72
2022/01/20 10:51:16;;;;;;;19.33;3.33;;;;;;;5.54;100.00;102880.84;5245238;28;20036;-73
2022/01/20 10:54:02;;;;;;;17.88;2.92;;;;;;;5.72;100.00;102893.28;5244102;28;20035;-71
2022/01/20 10:56:47;;;;;;;10.02;2.67;;;;;;;5.65;100.00;102880.50;5242356;28;20402;-72
2022/01/20 10:59:20;;;;;;;13.50;3.25;;;;;;;5.51;100.00;102875.72;5240970;28;20101;-73
2022/01/20 11:02:06;;;;;;;15.40;2.43;;;;;;;5.63;100.00;102879.69;5244043;28;20025;-71
2022/01/20 11:04:39;;;;;;;16.20;2.97;;;;;;;5.49;100.00;102881.00;5243445;28;20025;-72
2022/01/20 11:07:10;;;;;;;11.40;2.22;;;;;;;5.47;100.00;102874.97;5242460;28;20036;-72
2022/01/20 11:09:44;;;;;;;14.00;2.47;;;;;;;5.50;100.00;102868.84;5243787;28;20482;-72
2022/01/20 11:12:17;;;;;;;13.25;2.85;;;;;;;5.51;100.00;102879.19;5245018;28;20443;-72
2022/01/20 11:14:51;;;;;;;11.20;2.50;;;;;;;5.59;100.00;102887.59;5241989;28;20029;-71
2022/01/20 11:17:28;;;;;;;15.05;2.97;;;;;;;5.49;100.00;102891.38;5242250;28;20048;-71
2022/01/20 11:20:06;;;;;;;13.98;2.55;;;;;;;5.50;100.00;102890.47;5241579;28;20476;-73
2022/01/20 11:22:51;;;;;;;17.88;3.33;;;;;;;5.48;100.00;102879.28;5243021;28;20475;-72
2022/01/20 11:25:24;;;;;;;16.73;2.50;;;;;;;5.41;100.00;102885.56;5244841;28;20588;-73
2022/01/20 11:28:24;;;;;;;15.45;2.83;;;;;;;5.57;100.00;102894.59;5242453;28;20103;-72
2022/01/20 11:31:09;;;;;;;12.18;2.42;;;;;;;5.82;100.00;102883.41;5243257;28;20501;-71
2022/01/20 11:33:43;;;;;;;9.82;2.28;;;;;;;5.82;100.00;102878.22;5242065;28;20395;-72
2022/01/20 11:36:26;;;;;;;12.50;2.60;;;;;;;5.92;100.00;102877.06;5240362;28;20402;-72
2022/01/20 11:39:04;;;;;;;10.48;2.50;;;;;;;5.88;100.00;102877.19;5242876;28;20110;-72
2022/01/20 11:41:46;;;;;;;14.63;2.45;;;;;;;5.85;100.00;102878.97;5242540;28;20058;-71
2022/01/20 11:44:20;;;;;;;15.77;2.80;;;;;;;5.78;100.00;102877.47;5241971;28;20143;-71
2022/01/20 11:46:53;;;;;;;10.57;2.47;;;;;;;5.72;100.00;102872.47;5239864;28;20063;-72
2022/01/20 11:49:35;;;;;;;13.07;2.67;;;;;;;5.87;100.00;102876.28;5242256;28;20029;-71
2022/01/20 11:52:07;;;;;;;11.60;2.90;;;;;;;5.78;100.00;102871.41;5239110;28;20272;-72
2022/01/20 11:54:41;;;;;;;13.02;2.88;;;;;;;5.76;100.00;102876.66;5243606;28;20025;-71
2022/01/20 11:57:25;;;;;;;13.70;2.67;;;;;;;5.74;100.00;102869.81;5240091;28;20019;-73
2022/01/20 11:59:59;;;;;;;;;;;;;;;6.20;100.00;102858.75;5234653;28;20072;-71
2022/01/20 12:02:40;;;;;;;18.48;2.97;;;;;;;5.88;100.00;102862.41;5247073;28;19996;-71
2022/01/20 12:05:28;;;;;;;20.17;3.22;;;;;;;5.78;100.00;102882.66;5244929;28;20120;-71
2022/01/20 12:08:10;;;;;;;13.57;4.07;;;;;;;5.74;100.00;102881.06;5244916;28;20041;-71
2022/01/20 12:10:43;;;;;;;12.48;2.60;;;;;;;5.61;100.00;102871.97;5244386;28;20562;-71
2022/01/20 12:13:18;;;;;;;13.65;2.65;;;;;;;5.57;100.00;102860.81;5242617;28;20037;-71
2022/01/20 12:15:58;;;;;;;16.42;3.08;;;;;;;5.64;100.00;102855.38;5244411;28;20075;-71
2022/01/20 12:18:30;;;;;;;13.50;2.70;;;;;;;5.75;100.00;102848.94;5242845;28;20190;-71
2022/01/20 12:21:05;;;;;;;12.98;3.20;;;;;;;5.98;100.00;102845.59;5243060;28;20025;-71
2022/01/20 12:23:41;;;;;;;14.00;2.30;;;;;;;6.09;100.00;102845.25;5240710;28;20039;-71
2022/01/20 12:26:13;;;;;;;10.45;2.67;;;;;;;5.97;100.00;102841.31;5241463;28;20579;-73
2022/01/20 12:28:44;;;;;;;11.02;2.65;;;;;;;5.96;100.00;102849.19;5239782;28;20116;-73
2022/01/20 12:31:15;;;;;;;10.38;2.40;;;;;;;5.93;100.00;102849.28;5242373;28;20331;-71
2022/01/20 12:33:47;;;;;;;11.32;2.25;;;;;;;5.88;100.00;102848.56;5241530;28;20501;-72
2022/01/20 12:36:18;;;;;;;10.18;2.25;;;;;;;5.88;100.00;102853.75;5243608;28;20031;-73
2022/01/20 12:38:52;;;;;;;10.75;2.15;;;;;;;5.85;100.00;102868.56;5243384;28;20029;-73
2022/01/20 12:41:24;;;;;;;;;;;;;;;6.21;100.00;102870.88;5243308;28;20032;-71
2022/01/20 12:44:09;;;;;;;12.00;2.38;;;;;;;5.92;100.00;102864.03;5239132;28;19927;-71
2022/01/20 12:46:41;;;;;;;12.25;2.33;;;;;;;5.69;100.00;102858.72;5242663;28;20499;-71
2022/01/20 12:49:18;;;;;;;12.18;2.63;;;;;;;5.70;100.00;102865.59;5243260;28;20459;-71
2022/01/20 12:51:53;;;;;;;8.43;1.95;;;;;;;5.59;100.00;102861.59;5242528;28;20025;-71
2022/01/20 12:54:28;;;;;;;11.80;2.03;;;;;;;5.41;100.00;102866.50;5242474;28;20483;-71